sensor_id;sensor_type;location;lat;lon;timestamp;pressure;altitude;pressure_sealevel;temperature;humidity
4346;BME280;2186;49.866;7.986;2022-09-09T00:02:22;99714.97;;;17.09;100.00
4346;BME280;2186;49.866;7.986;2022-09-09T00:10:16;99708.00;;;17.07;100.00
4346;BME280;2186;49.866;7.986;2022-09-09T00:13:49;99702.25;;;16.84;100.00
4346;BME280;2186;49.866;7.986;2022-09-09T00:16:02;99709.56;;;16.82;100.00
4346;BME280;2186;49.866;7.986;2022-09-09T00:21:14;99701.69;;;16.65;100.00
4346;BME280;2186;49.866;7.986;2022-09-09T00:23:48;99709.28;;;16.58;100.00
4346;BME280;2186;49.866;7.986;2022-09-09T00:29:00;99704.56;;;16.48;100.00
4346;BME280;2186;49.866;7.986;2022-09-09T00:31:31;99708.88;;;16.50;100.00
4346;BME280;2186;49.866;7.986;2022-09-09T00:34:24;99692.00;;;16.34;100.00
4346;BME280;2186;49.866;7.986;2022-09-09T00:36:52;99691.81;;;16.37;100.00
4346;BME280;2186;49.866;7.986;2022-09-09T00:39:42;99688.56;;;16.32;100.00
4346;BME280;2186;49.866;7.986;2022-09-09T00:42:18;99687.72;;;16.32;100.00
4346;BME280;2186;49.866;7.986;2022-09-09T00:45:02;99696.31;;;16.37;100.00
4346;BME280;2186;49.866;7.986;2022-09-09T00:48:01;99696.59;;;16.18;100.00
4346;BME280;2186;49.866;7.986;2022-09-09T00:50:47;99697.47;;;16.18;100.00
4346;BME280;2186;49.866;7.986;2022-09-09T00:56:17;99698.13;;;16.22;100.00
4346;BME280;2186;49.866;7.986;2022-09-09T00:58:57;99692.63;;;15.95;100.00
4346;BME280;2186;49.866;7.986;2022-09-09T01:01:27;99682.25;;;15.89;100.00
4346;BME280;2186;49.866;7.986;2022-09-09T01:03:55;99681.13;;;15.93;100.00
4346;BME280;2186;49.866;7.986;2022-09-09T01:06:34;99687.84;;;16.00;100.00
4346;BME280;2186;49.866;7.986;2022-09-09T01:09:26;99686.09;;;15.99;100.00
4346;BME280;2186;49.866;7.986;2022-09-09T01:14:49;99679.56;;;15.89;100.00
4346;BME280;2186;49.866;7.986;2022-09-09T01:17:24;99683.94;;;16.06;100.00
4346;BME280;2186;49.866;7.986;2022-09-09T01:20:12;99682.59;;;16.13;100.00
4346;BME280;2186;49.866;7.986;2022-09-09T01:22:47;99680.00;;;16.11;100.00
4346;BME280;2186;49.866;7.986;2022-09-09T01:25:22;99679.88;;;15.98;100.00
4346;BME280;2186;49.866;7.986;2022-09-09T01:27:57;99674.91;;;15.92;100.00
4346;BME280;2186;49.866;7.986;2022-09-09T01:30:25;99682.28;;;16.03;100.00
4346;BME280;2186;49.866;7.986;2022-09-09T01:32:56;99675.16;;;16.18;100.00
4346;BME280;2186;49.866;7.986;2022-09-09T01:35:48;99686.53;;;16.07;100.00
4346;BME280;2186;49.866;7.986;2022-09-09T01:38:17;99692.34;;;15.99;100.00
4346;BME280;2186;49.866;7.986;2022-09-09T01:40:44;99682.22;;;16.05;100.00
4346;BME280;2186;49.866;7.986;2022-09-09T01:43:10;99696.94;;;15.97;100.00
4346;BME280;2186;49.866;7.986;2022-09-09T01:45:39;99693.63;;;16.51;100.00
4346;BME280;2186;49.866;7.986;2022-09-09T01:48:07;99695.63;;;16.19;100.00
4346;BME280;2186;49.866;7.986;2022-09-09T01:50:33;99699.75;;;16.10;100.00
4346;BME280;2186;49.866;7.986;2022-09-09T01:53:01;99700.97;;;16.05;100.00
4346;BME280;2186;49.866;7.986;2022-09-09T01:55:32;99701.94;;;16.04;100.00
4346;BME280;2186;49.866;7.986;2022-09-09T02:00:45;99708.16;;;16.04;100.00
4346;BME280;2186;49.866;7.986;2022-09-09T02:03:25;99701.94;;;16.04;100.00
4346;BME280;2186;49.866;7.986;2022-09-09T02:06:08;99704.50;;;15.91;100.00
4346;BME280;2186;49.866;7.986;2022-09-09T02:08:45;99699.88;;;15.79;100.00
4346;BME280;2186;49.866;7.986;2022-09-09T02:11:31;99692.88;;;15.76;100.00
4346;BME280;2186;49.866;7.986;2022-09-09T02:14:22;99689.91;;;15.81;100.00
4346;BME280;2186;49.866;7.986;2022-09-09T02:16:53;99693.88;;;15.74;100.00
4346;BME280;2186;49.866;7.986;2022-09-09T02:19:40;99700.50;;;15.68;100.00
4346;BME280;2186;49.866;7.986;2022-09-09T02:22:11;99703.25;;;15.66;100.00
4346;BME280;2186;49.866;7.986;2022-09-09T02:24:39;99701.19;;;15.56;100.00
4346;BME280;2186;49.866;7.986;2022-09-09T02:27:07;99696.88;;;15.53;100.00
4346;BME280;2186;49.866;7.986;2022-09-09T02:29:39;99698.41;;;15.57;100.00
4346;BME280;2186;49.866;7.986;2022-09-09T02:32:27;99699.44;;;15.55;100.00
4346;BME280;2186;49.866;7.986;2022-09-09T02:35:03;99700.94;;;15.60;100.00
4346;BME280;2186;49.866;7.986;2022-09-09T02:37:37;99705.44;;;15.44;100.00
4346;BME280;2186;49.866;7.986;2022-09-09T02:40:06;99699.72;;;15.50;100.00
4346;BME280;2186;49.866;7.986;2022-09-09T02:42:45;99698.16;;;15.46;100.00
4346;BME280;2186;49.866;7.986;2022-09-09T02:45:15;99692.38;;;15.54;100.00
4346;BME280;2186;49.866;7.986;2022-09-09T02:48:14;99687.69;;;15.57;100.00
4346;BME280;2186;49.866;7.986;2022-09-09T02:51:40;99678.69;;;15.58;100.00
4346;BME280;2186;49.866;7.986;2022-09-09T02:53:48;99680.97;;;15.50;100.00
4346;BME280;2186;49.866;7.986;2022-09-09T02:56:18;99670.97;;;15.38;100.00
4346;BME280;2186;49.866;7.986;2022-09-09T02:58:46;99669.84;;;15.42;100.00
4346;BME280;2186;49.866;7.986;2022-09-09T03:01:13;99661.72;;;15.44;100.00
4346;BME280;2186;49.866;7.986;2022-09-09T03:03:39;99664.75;;;15.37;100.00
4346;BME280;2186;49.866;7.986;2022-09-09T03:06:07;99675.38;;;15.39;100.00
4346;BME280;2186;49.866;7.986;2022-09-09T03:08:34;99678.31;;;15.34;100.00
4346;BME280;2186;49.866;7.986;2022-09-09T03:11:00;99680.91;;;15.36;100.00
4346;BME280;2186;49.866;7.986;2022-09-09T03:13:30;99681.84;;;15.35;100.00
4346;BME280;2186;49.866;7.986;2022-09-09T03:15:56;99682.97;;;15.31;100.00
4346;BME280;2186;49.866;7.986;2022-09-09T03:18:22;99687.66;;;15.27;100.00
4346;BME280;2186;49.866;7.986;2022-09-09T03:20:49;99696.28;;;15.32;100.00
4346;BME280;2186;49.866;7.986;2022-09-09T03:23:15;99694.47;;;15.33;100.00
4346;BME280;2186;49.866;7.986;2022-09-09T03:25:49;99701.31;;;15.38;100.00
4346;BME280;2186;49.866;7.986;2022-09-09T03:28:15;99691.69;;;15.66;100.00
4346;BME280;2186;49.866;7.986;2022-09-09T03:30:42;99693.06;;;15.87;100.00
4346;BME280;2186;49.866;7.986;2022-09-09T03:33:08;99691.59;;;16.26;100.00
4346;BME280;2186;49.866;7.986;2022-09-09T03:35:35;99696.41;;;16.49;100.00
4346;BME280;2186;49.866;7.986;2022-09-09T03:38:01;99693.94;;;16.61;100.00
4346;BME280;2186;49.866;7.986;2022-09-09T03:40:27;99683.19;;;16.61;100.00
4346;BME280;2186;49.866;7.986;2022-09-09T03:42:54;99675.25;;;16.59;100.00
4346;BME280;2186;49.866;7.986;2022-09-09T03:45:20;99681.75;;;16.55;100.00
4346;BME280;2186;49.866;7.986;2022-09-09T03:47:47;99680.31;;;16.64;100.00
4346;BME280;2186;49.866;7.986;2022-09-09T03:50:13;99686.34;;;16.81;100.00
4346;BME280;2186;49.866;7.986;2022-09-09T03:52:40;99684.34;;;16.85;100.00
4346;BME280;2186;49.866;7.986;2022-09-09T03:55:08;99673.13;;;16.93;100.00
4346;BME280;2186;49.866;7.986;2022-09-09T03:57:34;99677.41;;;16.95;100.00
4346;BME280;2186;49.866;7.986;2022-09-09T04:00:03;99680.47;;;17.03;100.00
4346;BME280;2186;49.866;7.986;2022-09-09T04:02:31;99674.38;;;16.87;100.00
4346;BME280;2186;49.866;7.986;2022-09-09T04:04:57;99687.84;;;17.14;100.00
4346;BME280;2186;49.866;7.986;2022-09-09T04:07:23;99666.00;;;17.06;100.00
4346;BME280;2186;49.866;7.986;2022-09-09T04:09:50;99676.88;;;16.90;100.00
4346;BME280;2186;49.866;7.986;2022-09-09T04:12:17;99671.34;;;17.06;100.00
4346;BME280;2186;49.866;7.986;2022-09-09T04:14:44;99680.34;;;17.19;100.00
4346;BME280;2186;49.866;7.986;2022-09-09T04:17:10;99669.44;;;17.08;100.00
4346;BME280;2186;49.866;7.986;2022-09-09T04:19:37;99678.94;;;16.99;100.00
4346;BME280;2186;49.866;7.986;2022-09-09T04:22:03;99667.91;;;17.04;100.00
4346;BME280;2186;49.866;7.986;2022-09-09T04:24:30;99677.03;;;17.01;100.00
4346;BME280;2186;49.866;7.986;2022-09-09T04:26:56;99679.78;;;17.14;100.00
4346;BME280;2186;49.866;7.986;2022-09-09T04:29:23;99679.81;;;17.00;100.00
4346;BME280;2186;49.866;7.986;2022-09-09T04:31:49;99690.22;;;17.18;100.00
4346;BME280;2186;49.866;7.986;2022-09-09T04:34:16;99700.59;;;17.10;100.00
4346;BME280;2186;49.866;7.986;2022-09-09T04:36:42;99705.06;;;17.24;100.00
4346;BME280;2186;49.866;7.986;2022-09-09T04:39:09;99699.53;;;17.13;100.00
4346;BME280;2186;49.866;7.986;2022-09-09T04:41:35;99702.28;;;17.26;100.00
4346;BME280;2186;49.866;7.986;2022-09-09T04:44:01;99697.72;;;17.13;100.00
4346;BME280;2186;49.866;7.986;2022-09-09T04:46:29;99703.97;;;17.14;100.00
4346;BME280;2186;49.866;7.986;2022-09-09T04:48:55;99701.88;;;17.05;100.00
4346;BME280;2186;49.866;7.986;2022-09-09T04:51:21;99701.34;;;17.12;100.00
4346;BME280;2186;49.866;7.986;2022-09-09T04:53:48;99709.19;;;16.88;100.00
4346;BME280;2186;49.866;7.986;2022-09-09T04:56:16;99708.22;;;16.90;100.00
4346;BME280;2186;49.866;7.986;2022-09-09T04:58:44;99715.31;;;16.91;100.00
4346;BME280;2186;49.866;7.986;2022-09-09T05:01:16;99710.50;;;16.96;100.00
4346;BME280;2186;49.866;7.986;2022-09-09T05:03:47;99715.41;;;16.89;100.00
4346;BME280;2186;49.866;7.986;2022-09-09T05:06:16;99708.22;;;16.90;100.00
4346;BME280;2186;49.866;7.986;2022-09-09T05:08:43;99712.59;;;17.05;100.00
4346;BME280;2186;49.866;7.986;2022-09-09T05:11:25;99710.78;;;17.05;100.00
4346;BME280;2186;49.866;7.986;2022-09-09T05:13:52;99710.22;;;17.00;100.00
4346;BME280;2186;49.866;7.986;2022-09-09T05:16:20;99715.75;;;16.97;100.00
4346;BME280;2186;49.866;7.986;2022-09-09T05:18:47;99719.91;;;17.03;100.00
4346;BME280;2186;49.866;7.986;2022-09-09T05:21:14;99725.94;;;17.06;100.00
4346;BME280;2186;49.866;7.986;2022-09-09T05:23:41;99729.13;;;17.26;100.00
4346;BME280;2186;49.866;7.986;2022-09-09T05:26:12;99727.50;;;17.23;100.00
4346;BME280;2186;49.866;7.986;2022-09-09T05:28:43;99730.97;;;17.25;100.00
4346;BME280;2186;49.866;7.986;2022-09-09T05:31:10;99730.28;;;17.36;100.00
4346;BME280;2186;49.866;7.986;2022-09-09T05:33:41;99735.31;;;17.82;100.00
4346;BME280;2186;49.866;7.986;2022-09-09T05:36:11;99728.00;;;18.23;100.00
4346;BME280;2186;49.866;7.986;2022-09-09T05:38:41;99725.50;;;18.33;100.00
4346;BME280;2186;49.866;7.986;2022-09-09T05:41:08;99723.25;;;18.52;100.00
4346;BME280;2186;49.866;7.986;2022-09-09T05:43:37;99723.38;;;18.63;99.78
4346;BME280;2186;49.866;7.986;2022-09-09T05:46:05;99722.81;;;18.58;100.00
4346;BME280;2186;49.866;7.986;2022-09-09T05:48:34;99738.09;;;18.45;100.00
4346;BME280;2186;49.866;7.986;2022-09-09T05:51:01;99729.28;;;18.43;100.00
4346;BME280;2186;49.866;7.986;2022-09-09T05:53:29;99734.97;;;18.13;100.00
4346;BME280;2186;49.866;7.986;2022-09-09T05:56:04;99743.53;;;18.05;100.00
4346;BME280;2186;49.866;7.986;2022-09-09T05:58:31;99738.88;;;17.95;100.00
4346;BME280;2186;49.866;7.986;2022-09-09T06:03:48;99754.84;;;17.98;100.00
4346;BME280;2186;49.866;7.986;2022-09-09T06:06:17;99758.09;;;18.16;100.00
4346;BME280;2186;49.866;7.986;2022-09-09T06:08:44;99762.84;;;18.25;100.00
4346;BME280;2186;49.866;7.986;2022-09-09T06:11:22;99755.09;;;18.33;100.00
4346;BME280;2186;49.866;7.986;2022-09-09T06:13:50;99751.31;;;18.35;100.00
4346;BME280;2186;49.866;7.986;2022-09-09T06:16:24;99756.06;;;18.32;100.00
4346;BME280;2186;49.866;7.986;2022-09-09T06:18:52;99748.88;;;18.45;100.00
4346;BME280;2186;49.866;7.986;2022-09-09T06:21:25;99745.53;;;18.54;100.00
4346;BME280;2186;49.866;7.986;2022-09-09T06:23:51;99746.94;;;18.47;100.00
4346;BME280;2186;49.866;7.986;2022-09-09T06:26:27;99734.69;;;18.69;100.00
4346;BME280;2186;49.866;7.986;2022-09-09T06:28:55;99740.59;;;18.23;100.00
4346;BME280;2186;49.866;7.986;2022-09-09T06:31:25;99732.06;;;18.29;100.00
4346;BME280;2186;49.866;7.986;2022-09-09T06:33:56;99745.44;;;18.43;100.00
4346;BME280;2186;49.866;7.986;2022-09-09T06:36:28;99751.44;;;18.59;100.00
4346;BME280;2186;49.866;7.986;2022-09-09T06:38:55;99744.34;;;18.46;100.00
4346;BME280;2186;49.866;7.986;2022-09-09T06:41:23;99737.88;;;18.23;100.00
4346;BME280;2186;49.866;7.986;2022-09-09T06:43:50;99737.88;;;18.35;100.00
4346;BME280;2186;49.866;7.986;2022-09-09T06:46:18;99736.81;;;18.38;100.00
4346;BME280;2186;49.866;7.986;2022-09-09T06:48:46;99736.53;;;18.68;100.00
4346;BME280;2186;49.866;7.986;2022-09-09T06:51:17;99736.06;;;18.61;100.00
4346;BME280;2186;49.866;7.986;2022-09-09T06:53:45;99733.06;;;18.79;100.00
4346;BME280;2186;49.866;7.986;2022-09-09T06:56:36;99738.53;;;18.90;100.00
4346;BME280;2186;49.866;7.986;2022-09-09T06:59:05;99733.69;;;18.95;100.00
4346;BME280;2186;49.866;7.986;2022-09-09T07:01:39;99737.03;;;18.86;99.87
4346;BME280;2186;49.866;7.986;2022-09-09T07:04:07;99739.81;;;18.97;100.00
4346;BME280;2186;49.866;7.986;2022-09-09T07:06:37;99736.41;;;18.70;100.00
4346;BME280;2186;49.866;7.986;2022-09-09T07:09:09;99739.31;;;18.92;99.97
4346;BME280;2186;49.866;7.986;2022-09-09T07:11:41;99744.75;;;19.03;99.38
4346;BME280;2186;49.866;7.986;2022-09-09T07:14:08;99737.28;;;18.70;100.00
4346;BME280;2186;49.866;7.986;2022-09-09T07:16:35;99742.66;;;18.83;100.00
4346;BME280;2186;49.866;7.986;2022-09-09T07:19:03;99753.94;;;18.88;100.00
4346;BME280;2186;49.866;7.986;2022-09-09T07:21:31;99746.03;;;19.23;98.73
4346;BME280;2186;49.866;7.986;2022-09-09T07:23:58;99757.81;;;19.09;99.41
4346;BME280;2186;49.866;7.986;2022-09-09T07:26:27;99749.00;;;19.31;98.74
4346;BME280;2186;49.866;7.986;2022-09-09T07:28:54;99742.59;;;19.21;97.85
4346;BME280;2186;49.866;7.986;2022-09-09T07:31:33;99754.66;;;19.52;96.87
4346;BME280;2186;49.866;7.986;2022-09-09T07:34:00;99748.34;;;19.40;97.67
4346;BME280;2186;49.866;7.986;2022-09-09T07:36:29;99752.94;;;19.51;97.88
4346;BME280;2186;49.866;7.986;2022-09-09T07:39:10;99754.69;;;19.76;95.76
4346;BME280;2186;49.866;7.986;2022-09-09T07:41:41;99748.66;;;19.96;95.22
4346;BME280;2186;49.866;7.986;2022-09-09T07:44:10;99752.44;;;19.94;93.85
4346;BME280;2186;49.866;7.986;2022-09-09T07:46:37;99752.91;;;20.23;93.13
4346;BME280;2186;49.866;7.986;2022-09-09T07:49:06;99751.28;;;20.55;91.64
4346;BME280;2186;49.866;7.986;2022-09-09T07:51:35;99753.66;;;20.60;88.93
4346;BME280;2186;49.866;7.986;2022-09-09T07:54:05;99759.81;;;20.84;89.39
4346;BME280;2186;49.866;7.986;2022-09-09T07:56:33;99769.59;;;20.63;91.44
4346;BME280;2186;49.866;7.986;2022-09-09T07:58:59;99773.56;;;21.04;88.35
4346;BME280;2186;49.866;7.986;2022-09-09T08:01:33;99771.59;;;20.72;87.99
4346;BME280;2186;49.866;7.986;2022-09-09T08:04:06;99775.00;;;20.28;88.20
4346;BME280;2186;49.866;7.986;2022-09-09T08:06:39;99782.09;;;20.18;89.10
4346;BME280;2186;49.866;7.986;2022-09-09T08:09:07;99771.56;;;20.26;90.10
4346;BME280;2186;49.866;7.986;2022-09-09T08:11:34;99780.44;;;20.39;90.67
4346;BME280;2186;49.866;7.986;2022-09-09T08:14:06;99773.75;;;20.56;88.70
4346;BME280;2186;49.866;7.986;2022-09-09T08:16:36;99775.63;;;20.78;88.45
4346;BME280;2186;49.866;7.986;2022-09-09T08:19:03;99774.06;;;20.97;88.49
4346;BME280;2186;49.866;7.986;2022-09-09T08:21:31;99780.31;;;20.87;85.41
4346;BME280;2186;49.866;7.986;2022-09-09T08:23:59;99786.56;;;20.76;86.30
4346;BME280;2186;49.866;7.986;2022-09-09T08:26:31;99785.59;;;21.22;84.84
4346;BME280;2186;49.866;7.986;2022-09-09T08:28:59;99783.16;;;21.41;83.98
4346;BME280;2186;49.866;7.986;2022-09-09T08:31:31;99786.06;;;21.61;84.77
4346;BME280;2186;49.866;7.986;2022-09-09T08:33:59;99789.63;;;21.61;84.47
4346;BME280;2186;49.866;7.986;2022-09-09T08:36:27;99789.56;;;21.40;84.46
4346;BME280;2186;49.866;7.986;2022-09-09T08:38:56;99788.06;;;21.47;84.44
4346;BME280;2186;49.866;7.986;2022-09-09T08:47:46;99782.59;;;22.13;82.80
4346;BME280;2186;49.866;7.986;2022-09-09T08:58:04;99778.78;;;22.04;80.64
4346;BME280;2186;49.866;7.986;2022-09-09T09:00:55;99781.13;;;22.41;80.94
4346;BME280;2186;49.866;7.986;2022-09-09T09:06:55;99785.09;;;22.37;79.70
4346;BME280;2186;49.866;7.986;2022-09-09T09:11:58;99790.91;;;22.95;75.85
4346;BME280;2186;49.866;7.986;2022-09-09T09:14:29;99785.66;;;22.82;73.06
4346;BME280;2186;49.866;7.986;2022-09-09T09:17:02;99785.41;;;22.85;76.45
4346;BME280;2186;49.866;7.986;2022-09-09T09:19:31;99797.59;;;22.91;75.09
4346;BME280;2186;49.866;7.986;2022-09-09T09:24:56;99793.06;;;22.80;75.76
4346;BME280;2186;49.866;7.986;2022-09-09T09:29:58;99779.97;;;23.06;72.53
4346;BME280;2186;49.866;7.986;2022-09-09T09:33:05;99782.50;;;22.77;74.34
4346;BME280;2186;49.866;7.986;2022-09-09T09:35:34;99792.34;;;22.78;73.60
4346;BME280;2186;49.866;7.986;2022-09-09T09:41:08;99796.25;;;23.16;73.81
4346;BME280;2186;49.866;7.986;2022-09-09T09:43:36;99789.91;;;22.54;74.97
4346;BME280;2186;49.866;7.986;2022-09-09T09:46:04;99791.06;;;22.82;74.13
4346;BME280;2186;49.866;7.986;2022-09-09T09:48:43;99793.69;;;22.63;74.10
4346;BME280;2186;49.866;7.986;2022-09-09T09:51:14;99802.88;;;22.51;74.49
4346;BME280;2186;49.866;7.986;2022-09-09T09:53:43;99800.47;;;22.57;75.65
4346;BME280;2186;49.866;7.986;2022-09-09T09:56:11;99805.09;;;22.87;74.80
4346;BME280;2186;49.866;7.986;2022-09-09T10:01:27;99797.38;;;22.41;76.00
4346;BME280;2186;49.866;7.986;2022-09-09T10:03:57;99796.28;;;22.11;75.87
4346;BME280;2186;49.866;7.986;2022-09-09T10:06:37;99791.09;;;22.40;76.26
4346;BME280;2186;49.866;7.986;2022-09-09T10:09:21;99782.84;;;22.21;78.31
4346;BME280;2186;49.866;7.986;2022-09-09T10:12:04;99778.63;;;22.49;77.43
4346;BME280;2186;49.866;7.986;2022-09-09T10:17:28;99773.00;;;22.62;76.14
4346;BME280;2186;49.866;7.986;2022-09-09T10:22:39;99773.94;;;23.33;72.05
4346;BME280;2186;49.866;7.986;2022-09-09T10:33:02;99772.91;;;22.94;74.98
4346;BME280;2186;49.866;7.986;2022-09-09T10:38:17;99766.59;;;23.24;70.94
4346;BME280;2186;49.866;7.986;2022-09-09T10:46:18;99749.66;;;23.31;72.38
4346;BME280;2186;49.866;7.986;2022-09-09T10:48:54;99763.19;;;23.81;71.04
4346;BME280;2186;49.866;7.986;2022-09-09T10:51:49;99765.47;;;23.67;68.72
4346;BME280;2186;49.866;7.986;2022-09-09T10:54:45;99766.66;;;24.12;66.27
4346;BME280;2186;49.866;7.986;2022-09-09T10:57:36;99758.38;;;24.14;66.51
4346;BME280;2186;49.866;7.986;2022-09-09T11:00:13;99756.22;;;23.88;67.23
4346;BME280;2186;49.866;7.986;2022-09-09T11:02:41;99752.22;;;23.43;68.93
4346;BME280;2186;49.866;7.986;2022-09-09T11:05:14;99747.63;;;23.74;69.21
4346;BME280;2186;49.866;7.986;2022-09-09T11:08:10;99762.63;;;23.78;68.91
4346;BME280;2186;49.866;7.986;2022-09-09T11:13:37;99756.31;;;23.68;69.02
4346;BME280;2186;49.866;7.986;2022-09-09T11:18:57;99755.06;;;23.81;67.39
4346;BME280;2186;49.866;7.986;2022-09-09T11:21:29;99758.09;;;23.38;69.27
4346;BME280;2186;49.866;7.986;2022-09-09T11:24:38;99755.50;;;24.06;68.77
4346;BME280;2186;49.866;7.986;2022-09-09T11:27:14;99757.22;;;24.36;65.94
4346;BME280;2186;49.866;7.986;2022-09-09T11:30:15;99759.94;;;24.45;66.23
4346;BME280;2186;49.866;7.986;2022-09-09T11:38:47;99772.81;;;23.45;68.51
4346;BME280;2186;49.866;7.986;2022-09-09T11:41:15;99781.34;;;23.00;71.75
4346;BME280;2186;49.866;7.986;2022-09-09T11:43:49;99785.00;;;22.69;74.25
4346;BME280;2186;49.866;7.986;2022-09-09T11:46:32;99785.34;;;22.55;74.14
4346;BME280;2186;49.866;7.986;2022-09-09T11:49:03;99793.31;;;22.14;77.37
4346;BME280;2186;49.866;7.986;2022-09-09T11:51:31;99799.16;;;21.87;82.44
4346;BME280;2186;49.866;7.986;2022-09-09T11:54:00;99798.88;;;21.36;88.40
4346;BME280;2186;49.866;7.986;2022-09-09T11:56:33;99793.19;;;20.94;94.31
4346;BME280;2186;49.866;7.986;2022-09-09T11:59:24;99799.31;;;20.63;96.31
4346;BME280;2186;49.866;7.986;2022-09-09T12:01:59;99806.47;;;20.05;99.43
4346;BME280;2186;49.866;7.986;2022-09-09T12:04:30;99802.22;;;20.49;98.64
4346;BME280;2186;49.866;7.986;2022-09-09T12:07:00;99802.25;;;20.01;99.92
4346;BME280;2186;49.866;7.986;2022-09-09T12:09:56;99809.50;;;19.76;100.00
4346;BME280;2186;49.866;7.986;2022-09-09T12:12:28;99808.53;;;19.77;100.00
4346;BME280;2186;49.866;7.986;2022-09-09T12:17:25;99795.38;;;19.23;100.00
4346;BME280;2186;49.866;7.986;2022-09-09T12:28:31;99809.16;;;19.81;98.82
4346;BME280;2186;49.866;7.986;2022-09-09T12:33:45;99796.63;;;20.39;93.83
4346;BME280;2186;49.866;7.986;2022-09-09T12:36:17;99783.38;;;20.71;91.95
4346;BME280;2186;49.866;7.986;2022-09-09T12:38:45;99785.19;;;20.59;91.93
4346;BME280;2186;49.866;7.986;2022-09-09T12:41:23;99776.00;;;20.73;87.95
4346;BME280;2186;49.866;7.986;2022-09-09T12:43:51;99782.19;;;20.97;87.12
4346;BME280;2186;49.866;7.986;2022-09-09T12:46:27;99778.84;;;21.05;87.43
4346;BME280;2186;49.866;7.986;2022-09-09T12:48:58;99773.22;;;20.97;87.45
4346;BME280;2186;49.866;7.986;2022-09-09T12:51:29;99770.13;;;21.35;86.40
4346;BME280;2186;49.866;7.986;2022-09-09T12:53:58;99771.47;;;21.52;85.20
4346;BME280;2186;49.866;7.986;2022-09-09T12:56:27;99781.09;;;21.77;81.17
4346;BME280;2186;49.866;7.986;2022-09-09T12:58:56;99786.09;;;21.93;80.51
4346;BME280;2186;49.866;7.986;2022-09-09T13:01:29;99772.94;;;21.88;80.03
4346;BME280;2186;49.866;7.986;2022-09-09T13:03:56;99776.06;;;22.15;79.63
4346;BME280;2186;49.866;7.986;2022-09-09T13:06:25;99775.22;;;22.04;79.30
4346;BME280;2186;49.866;7.986;2022-09-09T13:08:55;99766.50;;;22.11;80.44
4346;BME280;2186;49.866;7.986;2022-09-09T13:11:26;99766.25;;;21.71;78.63
4346;BME280;2186;49.866;7.986;2022-09-09T13:13:56;99769.13;;;21.36;79.10
4346;BME280;2186;49.866;7.986;2022-09-09T13:16:28;99769.25;;;21.35;80.91
4346;BME280;2186;49.866;7.986;2022-09-09T13:19:00;99761.63;;;21.06;81.64
4346;BME280;2186;49.866;7.986;2022-09-09T13:21:32;99766.69;;;20.88;82.37
4346;BME280;2186;49.866;7.986;2022-09-09T13:23:59;99755.63;;;20.80;83.17
4346;BME280;2186;49.866;7.986;2022-09-09T13:26:29;99748.38;;;20.81;83.71
4346;BME280;2186;49.866;7.986;2022-09-09T13:29:09;99747.13;;;20.96;83.85
4346;BME280;2186;49.866;7.986;2022-09-09T13:31:43;99751.06;;;20.92;84.50
4346;BME280;2186;49.866;7.986;2022-09-09T13:34:26;99748.75;;;20.76;85.70
4346;BME280;2186;49.866;7.986;2022-09-09T13:37:06;99760.03;;;20.92;85.62
4346;BME280;2186;49.866;7.986;2022-09-09T13:39:37;99769.50;;;20.87;85.63
4346;BME280;2186;49.866;7.986;2022-09-09T13:42:04;99762.25;;;21.10;84.37
4346;BME280;2186;49.866;7.986;2022-09-09T13:44:35;99757.84;;;20.86;84.87
4346;BME280;2186;49.866;7.986;2022-09-09T13:47:18;99755.25;;;20.96;85.34
4346;BME280;2186;49.866;7.986;2022-09-09T13:49:49;99758.44;;;20.79;86.76
4346;BME280;2186;49.866;7.986;2022-09-09T13:52:17;99765.47;;;21.04;87.70
4346;BME280;2186;49.866;7.986;2022-09-09T13:54:51;99763.84;;;20.90;90.83
4346;BME280;2186;49.866;7.986;2022-09-09T13:57:21;99761.13;;;20.56;94.13
4346;BME280;2186;49.866;7.986;2022-09-09T13:59:48;99753.56;;;20.84;93.42
4346;BME280;2186;49.866;7.986;2022-09-09T14:02:32;99756.00;;;20.76;92.87
4346;BME280;2186;49.866;7.986;2022-09-09T14:04:58;99754.88;;;20.67;94.28
4346;BME280;2186;49.866;7.986;2022-09-09T14:07:25;99748.47;;;20.68;95.89
4346;BME280;2186;49.866;7.986;2022-09-09T14:09:51;99750.81;;;20.95;93.79
4346;BME280;2186;49.866;7.986;2022-09-09T14:12:18;99747.28;;;20.83;94.52
4346;BME280;2186;49.866;7.986;2022-09-09T14:14:45;99753.38;;;20.52;94.60
4346;BME280;2186;49.866;7.986;2022-09-09T14:17:11;99753.78;;;20.58;96.28
4346;BME280;2186;49.866;7.986;2022-09-09T14:19:37;99747.38;;;20.59;96.50
4346;BME280;2186;49.866;7.986;2022-09-09T14:22:04;99750.22;;;20.91;94.67
4346;BME280;2186;49.866;7.986;2022-09-09T14:24:30;99749.72;;;20.75;95.61
4346;BME280;2186;49.866;7.986;2022-09-09T14:26:57;99753.28;;;20.64;96.02
4346;BME280;2186;49.866;7.986;2022-09-09T14:29:23;99751.41;;;20.54;97.11
4346;BME280;2186;49.866;7.986;2022-09-09T14:31:51;99749.50;;;21.00;97.49
4346;BME280;2186;49.866;7.986;2022-09-09T14:34:17;99746.41;;;20.72;97.90
4346;BME280;2186;49.866;7.986;2022-09-09T14:36:44;99734.00;;;20.80;97.00
4346;BME280;2186;49.866;7.986;2022-09-09T14:39:11;99748.72;;;21.10;96.44
4346;BME280;2186;49.866;7.986;2022-09-09T14:41:37;99753.16;;;21.22;94.99
4346;BME280;2186;49.866;7.986;2022-09-09T14:44:04;99745.56;;;20.71;93.48
4346;BME280;2186;49.866;7.986;2022-09-09T14:46:30;99739.19;;;20.83;92.88
4346;BME280;2186;49.866;7.986;2022-09-09T14:48:58;99735.84;;;20.80;93.83
4346;BME280;2186;49.866;7.986;2022-09-09T14:51:25;99722.84;;;20.85;92.12
4346;BME280;2186;49.866;7.986;2022-09-09T14:53:55;99727.25;;;20.75;92.00
4346;BME280;2186;49.866;7.986;2022-09-09T14:56:25;99722.00;;;20.84;90.58
4346;BME280;2186;49.866;7.986;2022-09-09T14:58:53;99720.63;;;20.90;90.88
4346;BME280;2186;49.866;7.986;2022-09-09T15:01:21;99720.38;;;20.93;90.95
4346;BME280;2186;49.866;7.986;2022-09-09T15:04:02;99707.25;;;20.77;90.57
4346;BME280;2186;49.866;7.986;2022-09-09T15:06:32;99702.56;;;20.90;89.30
4346;BME280;2186;49.866;7.986;2022-09-09T15:08:59;99697.16;;;21.02;89.04
4346;BME280;2186;49.866;7.986;2022-09-09T15:11:28;99699.53;;;20.84;89.50
4346;BME280;2186;49.866;7.986;2022-09-09T15:13:56;99704.75;;;21.19;88.17
4346;BME280;2186;49.866;7.986;2022-09-09T15:16:25;99704.25;;;21.36;87.22
4346;BME280;2186;49.866;7.986;2022-09-09T15:18:54;99710.41;;;21.38;86.58
4346;BME280;2186;49.866;7.986;2022-09-09T15:21:23;99720.25;;;21.28;84.37
4346;BME280;2186;49.866;7.986;2022-09-09T15:23:50;99728.38;;;21.28;83.91